Time;durP1;ratioP1;P1;durP2;ratioP2;P2;SDS_P1;SDS_P2;PMS_P1;PMS_P2;Temp;Humidity;BMP_temperature;BMP_pressure;BME280_temperature;BME280_humidity;BME280_pressure;Samples;Min_cycle;Max_cycle;Signal;HPM_P1;HPM_P2
2023/10/13 00:00:35;;;;;;;12.90;6.45;;;;;;;14.48;61.27;100363.38;5140347;27;20035;-62
2023/10/13 00:03:00;;;;;;;11.45;6.95;;;;;;;14.43;60.55;100360.41;5140963;27;20190;-62
2023/10/13 00:05:28;;;;;;;14.07;6.47;;;;;;;14.42;60.36;100358.75;5140762;27;20117;-62
2023/10/13 00:07:53;;;;;;;10.48;6.75;;;;;;;14.38;59.88;100357.38;5140686;27;20043;-63
2023/10/13 00:10:19;;;;;;;10.70;6.05;;;;;;;14.29;59.94;100361.91;5131824;27;20348;-62
2023/10/13 00:12:49;;;;;;;11.40;6.78;;;;;;;13.93;61.31;100315.41;5140868;27;20035;-62
2023/10/13 00:15:20;;;;;;;10.90;6.35;;;;;;;14.22;60.18;100357.44;5140988;27;20027;-62
2023/10/13 00:17:46;;;;;;;10.45;6.88;;;;;;;14.18;60.74;100354.28;5140188;27;20059;-62
2023/10/13 00:20:17;;;;;;;11.18;6.15;;;;;;;14.16;60.52;100345.63;5140719;27;20041;-62
2023/10/13 00:22:44;;;;;;;9.35;6.75;;;;;;;14.14;61.36;100344.13;5135658;27;20336;-62
2023/10/13 00:25:19;;;;;;;11.85;6.68;;;;;;;14.01;61.08;100324.19;5139296;27;20039;-62
2023/10/13 00:27:44;;;;;;;9.73;6.72;;;;;;;14.13;62.24;100345.97;5140084;27;20027;-62
2023/10/13 00:32:46;;;;;;;11.88;7.30;;;;;;;14.02;63.64;100347.16;5139927;27;20050;-62
2023/10/13 00:35:24;;;;;;;12.38;7.70;;;;;;;13.98;63.95;100340.50;5140157;27;20332;-62
2023/10/13 00:37:53;;;;;;;13.07;7.45;;;;;;;13.98;64.41;100343.19;5140193;27;20096;-62
2023/10/13 00:43:28;;;;;;;15.38;7.22;;;;;;;13.98;64.95;100337.03;5139905;27;20306;-62
2023/10/13 00:45:44;;;;;;;11.32;6.68;;;;;;;13.99;65.02;100334.19;5140301;27;20066;-62
2023/10/13 00:48:11;;;;;;;9.90;7.05;;;;;;;14.02;65.19;100335.69;5139436;27;20041;-62
2023/10/13 00:50:37;;;;;;;8.40;6.78;;;;;;;14.03;64.76;100338.16;5140985;27;20075;-62
2023/10/13 00:53:04;;;;;;;11.52;7.00;;;;;;;14.05;65.00;100335.34;5139854;27;20039;-61
2023/10/13 00:55:33;;;;;;;8.10;6.80;;;;;;;14.12;65.16;100330.16;5139268;27;20066;-63
2023/10/13 00:58:03;;;;;;;13.30;7.15;;;;;;;14.15;65.03;100330.66;5139288;27;20309;-62
2023/10/13 01:00:29;;;;;;;12.82;7.38;;;;;;;14.16;64.97;100324.31;5139832;27;20084;-62
2023/10/13 01:02:55;;;;;;;10.48;6.95;;;;;;;14.15;63.20;100327.16;5139769;27;20047;-62
2023/10/13 01:05:24;;;;;;;10.13;6.97;;;;;;;14.16;62.69;100327.00;5139481;27;20039;-62
2023/10/13 01:07:54;;;;;;;11.48;6.45;;;;;;;14.17;63.04;100333.16;5139410;27;20039;-62
2023/10/13 01:10:20;;;;;;;13.32;6.78;;;;;;;14.13;63.29;100340.66;5138577;27;20757;-62
2023/10/13 01:12:52;;;;;;;12.68;7.07;;;;;;;14.02;62.81;100335.69;5123079;27;20344;-62
2023/10/13 01:15:21;;;;;;;11.73;6.57;;;;;;;13.96;62.52;100331.03;5121858;27;20031;-61
2023/10/13 01:17:47;;;;;;;9.23;6.60;;;;;;;13.91;61.83;100328.88;5130326;27;20217;-61
2023/10/13 01:20:26;;;;;;;10.50;5.80;;;;;;;13.86;59.62;100333.06;5122368;27;20030;-62
2023/10/13 01:22:55;;;;;;;12.68;6.18;;;;;;;13.65;59.17;100331.75;5122337;27;20410;-62
2023/10/13 01:25:28;;;;;;;8.10;5.22;;;;;;;13.39;58.41;100323.91;5122966;27;20053;-62
2023/10/13 01:27:54;;;;;;;7.95;4.80;;;;;;;13.35;58.09;100321.75;5123372;27;20043;-62
2023/10/13 01:30:24;;;;;;;8.18;4.63;;;;;;;13.35;57.93;100329.72;5122346;27;20344;-62
2023/10/13 01:32:51;;;;;;;8.88;5.63;;;;;;;13.31;57.37;100328.41;5130941;27;20035;-62
2023/10/13 01:35:18;;;;;;;10.15;6.40;;;;;;;13.19;61.60;100333.19;5122874;27;20040;-62
2023/10/13 01:37:45;;;;;;;12.15;6.07;;;;;;;13.19;63.28;100327.06;5121974;27;20035;-61
2023/10/13 01:40:18;;;;;;;6.57;5.18;;;;;;;13.12;60.72;100326.84;5121813;27;20149;-62
2023/10/13 01:42:45;;;;;;;9.45;5.60;;;;;;;13.17;60.96;100331.69;5121612;27;20029;-63
2023/10/13 01:45:14;;;;;;;9.15;6.32;;;;;;;13.07;62.45;100330.00;5131198;27;20111;-62
2023/10/13 01:47:39;;;;;;;10.85;6.25;;;;;;;13.06;63.41;100325.69;5121514;27;20027;-62
2023/10/13 01:50:14;;;;;;;7.95;5.60;;;;;;;13.06;61.98;100331.00;5121331;27;20042;-62
2023/10/13 01:52:41;;;;;;;10.48;6.30;;;;;;;13.00;61.29;100318.34;5120995;27;20359;-62
2023/10/13 01:55:09;;;;;;;10.63;5.38;;;;;;;13.05;61.28;100326.66;5131060;27;20337;-64
2023/10/13 01:57:35;;;;;;;10.02;5.80;;;;;;;13.07;62.20;100331.81;5121577;27;20420;-62
2023/10/13 02:00:10;;;;;;;6.22;5.20;;;;;;;13.08;62.64;100328.16;5121435;28;20534;-62
2023/10/13 02:02:38;;;;;;;8.65;5.60;;;;;;;13.05;60.96;100317.88;5121883;27;20038;-62
2023/10/13 02:05:03;;;;;;;10.57;5.80;;;;;;;13.06;60.79;100317.69;5121239;28;20380;-62
2023/10/13 02:07:34;;;;;;;9.57;6.30;;;;;;;13.05;61.20;100317.88;5122007;28;20122;-62
2023/10/13 02:10:03;;;;;;;8.52;5.32;;;;;;;12.87;60.78;100318.00;5121096;28;20055;-63
2023/10/13 02:12:36;;;;;;;8.75;5.55;;;;;;;12.91;60.90;100316.69;5137300;27;20038;-62
2023/10/13 02:15:04;;;;;;;8.27;5.85;;;;;;;12.96;63.15;100319.69;5122902;28;20046;-63
2023/10/13 02:17:39;;;;;;;12.23;6.57;;;;;;;13.02;64.97;100313.72;5122479;28;20093;-63
2023/10/13 02:20:08;;;;;;;10.65;6.93;;;;;;;13.03;64.13;100320.69;5122100;28;20030;-63
2023/10/13 02:22:34;;;;;;;10.43;6.40;;;;;;;13.07;64.80;100323.84;5121097;28;20328;-63
2023/10/13 02:25:05;;;;;;;15.32;6.72;;;;;;;13.03;65.55;100327.81;5129203;28;20051;-63
2023/10/13 02:27:40;;;;;;;13.45;7.03;;;;;;;13.04;65.12;100322.34;5120465;28;20077;-62
2023/10/13 02:30:12;;;;;;;10.32;6.43;;;;;;;13.04;64.92;100321.53;5121733;28;20102;-62
2023/10/13 02:32:40;;;;;;;12.05;7.07;;;;;;;13.08;66.09;100323.69;5121564;28;20241;-63
2023/10/13 02:35:08;;;;;;;17.80;7.40;;;;;;;13.09;66.54;100322.69;5121719;28;20412;-63
2023/10/13 02:37:35;;;;;;;17.27;7.30;;;;;;;13.12;67.32;100316.22;5130157;28;20046;-63
2023/10/13 02:40:01;;;;;;;11.63;7.03;;;;;;;13.11;67.36;100325.19;5121241;28;20096;-63
2023/10/13 02:42:26;;;;;;;14.40;7.00;;;;;;;13.07;68.08;100318.53;5120635;28;20285;-63
2023/10/13 02:44:57;;;;;;;13.35;7.10;;;;;;;12.99;68.28;100314.03;5129902;28;20043;-63
2023/10/13 02:47:24;;;;;;;13.07;7.30;;;;;;;12.92;68.76;100307.72;5121389;28;20102;-63
2023/10/13 02:49:50;;;;;;;10.90;6.95;;;;;;;12.75;69.63;100287.41;5121676;28;20071;-63
2023/10/13 02:52:15;;;;;;;11.40;5.85;;;;;;;12.92;69.35;100309.53;5110899;28;20044;-63
2023/10/13 02:54:50;;;;;;;10.90;6.57;;;;;;;12.96;69.32;100311.69;5121050;28;20035;-63
2023/10/13 02:57:18;;;;;;;11.95;6.75;;;;;;;12.95;69.25;100303.91;5121254;27;20031;-63
2023/10/13 02:59:48;;;;;;;9.93;5.72;;;;;;;13.03;68.78;100314.53;5121614;28;20348;-64
2023/10/13 03:02:27;;;;;;;7.97;5.78;;;;;;;12.98;68.69;100307.06;5131457;27;20415;-63
2023/10/13 03:05:08;;;;;;;12.27;5.85;;;;;;;12.98;69.38;100317.69;5124674;27;20043;-63
2023/10/13 03:07:36;;;;;;;10.70;5.80;;;;;;;13.03;68.79;100309.22;5124970;27;20028;-63
2023/10/13 03:10:09;;;;;;;7.72;5.30;;;;;;;13.06;68.68;100307.06;5125100;27;20217;-63
2023/10/13 03:12:36;;;;;;;10.20;5.78;;;;;;;13.06;68.70;100306.22;5125009;27;20035;-63
2023/10/13 03:15:19;;;;;;;9.38;5.47;;;;;;;13.07;68.54;100297.25;5124867;27;20041;-63
2023/10/13 03:17:46;;;;;;;9.15;5.80;;;;;;;13.06;68.81;100309.72;5125279;27;20032;-63
2023/10/13 03:20:15;;;;;;;21.63;7.25;;;;;;;13.07;68.81;100313.22;5125188;27;20046;-63
2023/10/13 03:22:44;;;;;;;10.80;5.90;;;;;;;13.07;68.81;100307.91;5124414;27;20293;-63
2023/10/13 03:25:21;;;;;;;12.88;7.07;;;;;;;13.13;68.33;100304.56;5124515;27;20046;-63
2023/10/13 03:30:20;;;;;;;10.07;5.95;;;;;;;13.15;68.30;100294.59;5125318;27;20080;-63
2023/10/13 03:32:53;;;;;;;12.40;5.90;;;;;;;13.17;68.21;100289.16;5124193;27;20036;-63
2023/10/13 03:35:25;;;;;;;11.75;6.18;;;;;;;13.16;67.87;100293.63;5123755;27;20027;-63
2023/10/13 03:37:54;;;;;;;16.48;6.18;;;;;;;13.20;68.07;100294.97;5123489;27;20031;-62
2023/10/13 03:43:29;;;;;;;12.60;6.63;;;;;;;13.01;68.54;100298.75;5124204;27;20378;-63
2023/10/13 03:45:48;;;;;;;13.00;6.32;;;;;;;13.07;68.22;100292.78;5116614;27;20047;-64
2023/10/13 03:53:36;;;;;;;11.98;6.53;;;;;;;13.13;68.41;100287.78;5123906;27;20050;-63
2023/10/13 03:56:08;;;;;;;11.20;5.93;;;;;;;13.09;68.05;100295.28;5124599;27;20210;-63
2023/10/13 03:58:45;;;;;;;11.75;5.72;;;;;;;13.00;67.92;100280.31;5123180;27;20107;-63
2023/10/13 04:01:14;;;;;;;11.10;5.82;;;;;;;12.89;68.64;100294.75;5124020;27;20413;-62
2023/10/13 04:03:56;;;;;;;12.80;6.30;;;;;;;12.68;69.36;100295.19;5124407;27;20062;-63
2023/10/13 04:06:51;;;;;;;12.73;6.80;;;;;;;12.71;69.54;100296.69;5124303;27;20286;-63
2023/10/13 04:17:26;;;;;;;14.68;6.55;;;;;;;12.77;70.10;100293.41;5133246;27;20076;-63
2023/10/13 04:25:35;;;;;;;13.32;7.03;;;;;;;12.57;69.97;100308.78;5122956;27;20342;-63
2023/10/13 04:28:15;;;;;;;16.33;7.35;;;;;;;12.54;70.37;100319.72;5122867;27;20043;-64
2023/10/13 04:33:36;;;;;;;14.60;6.55;;;;;;;12.27;71.18;100311.94;5122990;27;20076;-62
2023/10/13 04:36:16;;;;;;;15.38;6.53;;;;;;;12.18;71.44;100318.22;5123399;27;20042;-62
2023/10/13 04:39:09;;;;;;;16.55;7.05;;;;;;;12.26;71.31;100316.44;5122956;27;20094;-62
2023/10/13 04:41:57;;;;;;;12.93;8.40;;;;;;;12.46;70.41;100320.50;5122324;27;20252;-62
2023/10/13 04:54:53;;;;;;;13.30;6.70;;;;;;;12.66;68.72;100326.41;5123884;27;20077;-63
2023/10/13 04:57:30;;;;;;;12.52;6.03;;;;;;;12.70;68.02;100316.28;5121653;27;20023;-63
2023/10/13 05:51:46;;;;;;;15.05;10.18;;;;;;;13.80;68.60;100325.75;5122391;27;20063;-62
2023/10/13 06:29:34;;;;;;;21.35;12.38;;;;;;;16.26;60.86;100357.81;5138117;27;20042;-63
2023/10/13 06:32:01;;;;;;;20.13;9.43;;;;;;;16.32;60.41;100357.09;5137451;27;20027;-63
2023/10/13 06:34:44;;;;;;;18.35;9.27;;;;;;;16.53;60.78;100351.81;5118825;27;20230;-64
2023/10/13 06:37:22;;;;;;;12.67;7.30;;;;;;;16.70;59.64;100354.34;5138255;27;20031;-63
2023/10/13 06:40:16;;;;;;;8.23;5.70;;;;;;;16.64;59.60;100360.38;5142036;27;20869;-63
2023/10/13 06:42:44;;;;;;;9.38;6.38;;;;;;;16.48;61.15;100362.25;5141268;27;20377;-63
2023/10/13 06:45:11;;;;;;;10.88;5.93;;;;;;;16.70;60.47;100354.34;5141783;27;20039;-63
2023/10/13 06:47:42;;;;;;;13.35;6.80;;;;;;;16.86;60.45;100357.66;5141437;27;20102;-63
2023/10/13 06:50:19;;;;;;;12.23;6.70;;;;;;;16.96;60.14;100364.53;5140792;27;20061;-63
2023/10/13 06:52:48;;;;;;;14.27;6.93;;;;;;;17.18;59.55;100360.88;5141070;27;20039;-63
2023/10/13 06:55:34;;;;;;;31.90;7.18;;;;;;;17.20;59.64;100361.53;5141149;27;20237;-62
2023/10/13 06:58:00;;;;;;;24.58;9.02;;;;;;;17.23;59.69;100356.63;5141249;27;20043;-63
2023/10/13 07:00:33;;;;;;;26.17;6.72;;;;;;;17.42;59.05;100357.00;5141148;27;20344;-63
2023/10/13 07:03:06;;;;;;;17.58;5.65;;;;;;;17.63;59.13;100358.84;5141390;27;20072;-62
2023/10/13 07:05:39;;;;;;;13.95;5.70;;;;;;;17.81;58.69;100353.91;5140650;27;20061;-63
2023/10/13 07:08:08;;;;;;;11.38;5.28;;;;;;;17.95;58.17;100355.66;5141299;27;20031;-63
2023/10/13 07:10:51;;;;;;;8.98;4.13;;;;;;;18.05;56.75;100349.94;5141077;27;20560;-63
2023/10/13 07:13:19;;;;;;;10.07;4.50;;;;;;;18.13;55.95;100350.63;5140988;27;20039;-63
2023/10/13 07:15:45;;;;;;;7.13;5.00;;;;;;;18.12;56.24;100361.53;5140602;27;20035;-63
2023/10/13 07:18:18;;;;;;;8.35;4.90;;;;;;;18.25;55.42;100364.31;5139762;27;20042;-63
2023/10/13 07:20:46;;;;;;;7.30;3.90;;;;;;;18.41;54.18;100360.47;5141114;27;20524;-63
2023/10/13 07:23:24;;;;;;;5.78;3.83;;;;;;;18.52;54.41;100354.56;5140555;27;20054;-64
2023/10/13 07:26:03;;;;;;;10.38;4.10;;;;;;;18.63;54.49;100354.03;5140480;27;20233;-63
2023/10/13 07:28:35;;;;;;;6.90;4.15;;;;;;;18.67;54.41;100354.44;5140247;27;20035;-63
2023/10/13 07:33:31;;;;;;;4.38;3.65;;;;;;;19.06;53.30;100346.56;5139927;27;20035;-64
2023/10/13 07:36:01;;;;;;;7.32;4.25;;;;;;;19.20;52.43;100343.91;5140566;27;20034;-63
2023/10/13 07:38:30;;;;;;;18.70;4.93;;;;;;;19.36;51.28;100347.03;5140248;27;20073;-63
2023/10/13 07:40:59;;;;;;;9.00;4.63;;;;;;;19.47;52.36;100350.97;5138970;27;20593;-62
2023/10/13 07:43:27;;;;;;;25.48;8.93;;;;;;;19.60;51.24;100350.19;5139776;27;20107;-64
2023/10/13 07:45:58;;;;;;;16.33;6.95;;;;;;;19.66;49.39;100352.88;5139549;27;20076;-63
2023/10/13 07:48:25;;;;;;;13.18;6.85;;;;;;;19.68;50.40;100342.75;5138002;27;20042;-63
2023/10/13 07:51:03;;;;;;;51.75;22.52;;;;;;;19.83;49.72;100345.25;5139747;27;20141;-63
2023/10/13 07:53:34;;;;;;;20.83;10.45;;;;;;;19.95;48.82;100348.97;5138996;27;20214;-63
2023/10/13 07:56:05;;;;;;;29.90;15.48;;;;;;;19.96;47.46;100344.44;5138971;27;20031;-63
2023/10/13 07:58:32;;;;;;;21.65;10.80;;;;;;;20.04;47.34;100355.78;5139880;27;20051;-64
2023/10/13 08:01:16;;;;;;;14.02;6.18;;;;;;;20.14;48.93;100351.84;5140372;27;20039;-63
2023/10/13 08:03:45;;;;;;;12.98;5.47;;;;;;;20.25;49.20;100346.66;5140300;27;20035;-63
2023/10/13 08:08:43;;;;;;;13.52;8.07;;;;;;;20.24;46.90;100344.16;5131919;27;20037;-63
2023/10/13 08:11:25;;;;;;;13.35;7.00;;;;;;;20.24;47.57;100342.31;5137974;27;20080;-63
2023/10/13 08:14:11;;;;;;;16.25;8.48;;;;;;;20.27;46.27;100339.19;5138172;27;20055;-63
2023/10/13 08:16:59;;;;;;;15.70;8.43;;;;;;;20.37;46.88;100333.38;5137164;27;20034;-64
2023/10/13 08:19:39;;;;;;;12.90;7.05;;;;;;;20.34;47.24;100329.25;5139906;27;20031;-63
2023/10/13 08:42:40;;;;;;;11.15;5.82;;;;;;;20.52;45.15;100299.00;5140260;27;20253;-64
2023/10/13 08:45:08;;;;;;;7.88;4.32;;;;;;;20.64;44.96;100304.53;5132471;27;20214;-63
2023/10/13 08:47:36;;;;;;;8.32;4.57;;;;;;;20.70;45.04;100301.00;5139980;27;20409;-63
2023/10/13 08:50:31;;;;;;;10.70;4.93;;;;;;;20.69;45.53;100302.03;5139659;27;20035;-64
2023/10/13 08:52:49;;;;;;;14.63;5.60;;;;;;;20.77;44.53;100307.16;5140082;27;20095;-63
2023/10/13 08:58:13;;;;;;;7.80;4.03;;;;;;;20.48;44.51;100299.66;5132133;27;20084;-63
2023/10/13 09:00:56;;;;;;;13.50;4.78;;;;;;;20.55;45.13;100295.06;5139183;27;20039;-63
2023/10/13 09:03:39;;;;;;;7.28;4.63;;;;;;;20.59;44.95;100293.59;5140078;27;20036;-63
2023/10/13 09:06:07;;;;;;;5.30;4.35;;;;;;;20.59;44.68;100290.91;5130874;27;20042;-63
2023/10/13 09:08:58;;;;;;;6.32;3.88;;;;;;;20.63;44.88;100286.75;5138019;27;20378;-63
2023/10/13 09:11:26;;;;;;;6.50;3.80;;;;;;;20.72;46.64;100286.28;5130549;27;20102;-63
2023/10/13 09:13:52;;;;;;;7.90;4.22;;;;;;;20.81;44.50;100284.19;5122563;27;20132;-63
2023/10/13 09:19:11;;;;;;;7.22;4.03;;;;;;;20.90;44.81;100287.47;5123086;27;20046;-63
2023/10/13 09:26:49;;;;;;;5.60;4.10;;;;;;;20.84;44.63;100289.16;5123043;27;20031;-63
2023/10/13 09:29:18;;;;;;;6.53;3.92;;;;;;;20.81;43.72;100283.38;5121796;27;20039;-64
2023/10/13 09:31:50;;;;;;;6.10;4.68;;;;;;;20.89;44.09;100283.94;5122897;27;20027;-64
2023/10/13 09:34:29;;;;;;;7.20;4.40;;;;;;;20.87;43.91;100282.50;5122830;27;20041;-63
2023/10/13 09:36:57;;;;;;;12.30;4.95;;;;;;;20.92;44.44;100280.81;5130758;27;20038;-63
2023/10/13 09:42:23;;;;;;;12.38;5.25;;;;;;;21.01;44.72;100279.53;5110144;27;20351;-63
2023/10/13 09:44:55;;;;;;;8.13;4.25;;;;;;;21.04;43.52;100276.41;5121487;27;20047;-63
2023/10/13 09:47:36;;;;;;;8.13;5.10;;;;;;;21.09;44.47;100273.06;5121888;27;20330;-63
2023/10/13 09:50:04;;;;;;;11.80;5.35;;;;;;;21.10;44.11;100269.31;5121774;27;20081;-63
2023/10/13 09:52:31;;;;;;;10.05;5.15;;;;;;;21.18;44.79;100270.91;5124318;27;20082;-63
2023/10/13 09:55:09;;;;;;;9.43;4.78;;;;;;;21.28;44.51;100265.91;5126431;27;20357;-63
2023/10/13 09:57:42;;;;;;;9.07;5.35;;;;;;;21.37;43.41;100263.75;5121126;28;20359;-63
2023/10/13 10:00:46;;;;;;;6.85;5.07;;;;;;;21.37;43.83;100251.13;5121592;27;20042;-63
2023/10/13 10:03:14;;;;;;;6.25;4.57;;;;;;;21.42;44.36;100253.97;5122082;28;20042;-63
2023/10/13 10:05:59;;;;;;;11.30;4.18;;;;;;;21.48;44.21;100254.97;5125283;28;20035;-63
2023/10/13 10:08:33;;;;;;;6.30;4.18;;;;;;;21.52;43.06;100256.16;5124724;28;20043;-64
2023/10/13 10:11:23;;;;;;;9.25;4.93;;;;;;;21.52;43.96;100251.59;5122392;28;20102;-63
2023/10/13 10:14:01;;;;;;;11.15;4.47;;;;;;;21.51;43.79;100249.13;5122006;28;20346;-63
2023/10/13 10:17:03;;;;;;;7.65;4.72;;;;;;;21.49;44.55;100241.25;5121919;28;20203;-63
2023/10/13 10:19:30;;;;;;;11.15;4.65;;;;;;;21.53;44.73;100228.19;5131314;28;20044;-63
2023/10/13 10:22:16;;;;;;;9.00;4.30;;;;;;;21.54;43.23;100217.19;5137406;27;20349;-64
2023/10/13 10:24:43;;;;;;;8.73;4.88;;;;;;;21.61;43.25;100219.81;5122465;28;20394;-63
2023/10/13 10:27:14;;;;;;;10.20;5.20;;;;;;;21.60;43.38;100221.69;5125852;28;20083;-64
2023/10/13 10:30:00;;;;;;;7.72;3.95;;;;;;;21.69;41.47;100214.13;5124778;28;20031;-64
2023/10/13 10:32:40;;;;;;;5.88;4.40;;;;;;;21.69;41.63;100208.75;5121053;28;20095;-63
2023/10/13 10:35:14;;;;;;;8.82;4.70;;;;;;;21.63;41.98;100204.25;5121942;28;20039;-63
2023/10/13 10:37:46;;;;;;;11.57;5.07;;;;;;;21.57;41.96;100197.03;5121831;28;20035;-63
2023/10/13 10:43:01;;;;;;;6.43;4.40;;;;;;;21.66;41.51;100195.72;5121806;28;20233;-64
2023/10/13 10:45:32;;;;;;;10.32;5.28;;;;;;;21.76;41.76;100192.50;5122771;28;20203;-63
2023/10/13 10:47:58;;;;;;;8.48;4.70;;;;;;;21.85;41.53;100194.69;5121869;28;20371;-63
2023/10/13 10:50:36;;;;;;;22.33;5.32;;;;;;;21.84;41.86;100184.94;5121544;27;20031;-64
2023/10/13 10:53:08;;;;;;;8.95;5.53;;;;;;;21.91;42.27;100182.19;5122673;28;20054;-63
2023/10/13 10:55:36;;;;;;;7.28;4.70;;;;;;;21.98;42.30;100180.25;5120781;28;20067;-64
2023/10/13 10:58:06;;;;;;;7.43;5.13;;;;;;;22.04;41.20;100173.97;5121030;28;20051;-63
2023/10/13 11:00:50;;;;;;;11.05;5.05;;;;;;;22.14;41.00;100184.22;5122028;28;20107;-63
2023/10/13 11:03:15;;;;;;;7.55;4.68;;;;;;;22.15;39.90;100169.69;5121956;28;20218;-63
2023/10/13 11:05:50;;;;;;;7.80;4.75;;;;;;;22.18;40.16;100169.22;5122014;28;20031;-63
2023/10/13 11:08:31;;;;;;;7.22;4.78;;;;;;;22.15;39.90;100162.41;5121236;28;20040;-63
2023/10/13 11:11:05;;;;;;;7.75;4.63;;;;;;;22.28;39.71;100174.91;5121286;28;20050;-63
2023/10/13 11:13:47;;;;;;;8.63;4.47;;;;;;;22.30;39.68;100170.09;5120267;27;20407;-63
2023/10/13 11:16:34;;;;;;;8.63;4.40;;;;;;;22.34;39.60;100163.19;5121682;28;20035;-63
2023/10/13 11:19:05;;;;;;;9.18;5.13;;;;;;;22.49;38.65;100160.09;5122500;28;20027;-63
2023/10/13 11:21:31;;;;;;;9.73;4.72;;;;;;;22.68;38.79;100153.56;5120936;28;20691;-64
2023/10/13 11:24:08;;;;;;;7.55;4.88;;;;;;;22.77;39.30;100149.47;5136020;27;20036;-63
2023/10/13 11:26:49;;;;;;;5.75;4.88;;;;;;;22.82;40.08;100143.41;5137369;27;20639;-63
2023/10/13 11:29:35;;;;;;;11.20;5.15;;;;;;;22.89;37.96;100142.28;5140102;27;20123;-63
2023/10/13 11:32:02;;;;;;;6.25;4.72;;;;;;;22.88;38.73;100134.38;5135954;27;20287;-63
2023/10/13 11:34:39;;;;;;;8.60;4.82;;;;;;;22.86;37.45;100134.63;5132975;27;20083;-64
2023/10/13 11:37:29;;;;;;;6.85;4.32;;;;;;;22.86;37.33;100131.94;5128407;27;20035;-63
2023/10/13 11:39:51;;;;;;;7.15;4.72;;;;;;;22.89;37.17;100128.78;5124631;27;20053;-63
2023/10/13 11:42:17;;;;;;;8.60;4.75;;;;;;;22.96;38.29;100130.56;5123038;27;20202;-63
2023/10/13 11:44:45;;;;;;;10.15;5.13;;;;;;;22.94;39.01;100133.50;5132516;27;20046;-63
2023/10/13 11:49:58;;;;;;;11.10;4.82;;;;;;;22.75;39.10;100126.47;5121513;27;20058;-63
2023/10/13 11:52:26;;;;;;;8.80;4.55;;;;;;;22.72;38.66;100125.06;5133538;27;20027;-63
2023/10/13 11:54:51;;;;;;;7.10;4.80;;;;;;;22.73;39.47;100120.50;5124599;27;20043;-64
2023/10/13 11:57:19;;;;;;;7.65;4.78;;;;;;;22.78;39.34;100126.84;5124677;27;20058;-63
2023/10/13 11:59:52;;;;;;;6.97;4.40;;;;;;;22.78;38.37;100123.31;5124821;27;20049;-63
2023/10/13 12:04:54;;;;;;;7.03;4.40;;;;;;;22.76;38.50;100120.03;5124467;27;20166;-64
2023/10/13 12:07:20;;;;;;;5.72;4.22;;;;;;;22.77;38.81;100122.47;5124661;27;20035;-62
2023/10/13 12:12:26;;;;;;;7.88;4.45;;;;;;;22.92;36.59;100120.22;5124074;27;20116;-63
2023/10/13 12:14:52;;;;;;;6.25;4.40;;;;;;;22.92;37.88;100120.22;5124882;27;20062;-63
2023/10/13 12:17:34;;;;;;;8.07;4.28;;;;;;;22.88;38.71;100124.41;5123694;27;20072;-64
2023/10/13 12:20:01;;;;;;;19.67;7.13;;;;;;;22.89;38.22;100117.16;5128315;27;20049;-63
2023/10/13 12:22:35;;;;;;;11.25;5.45;;;;;;;22.91;38.02;100115.06;5132961;27;20027;-63
2023/10/13 12:25:04;;;;;;;8.65;4.95;;;;;;;22.90;38.50;100116.09;5126089;27;20050;-63
2023/10/13 12:27:45;;;;;;;10.18;6.18;;;;;;;22.85;37.78;100116.78;5133290;27;20090;-64
2023/10/13 12:30:13;;;;;;;10.65;6.38;;;;;;;22.93;37.89;100115.63;5122995;27;20629;-63
2023/10/13 12:32:44;;;;;;;8.88;5.30;;;;;;;22.91;39.16;100115.88;5124389;27;20075;-63
2023/10/13 12:51:20;;;;;;;5.32;3.85;;;;;;;23.93;32.40;100101.06;5140013;27;20030;-64
2023/10/13 12:54:02;;;;;;;5.65;3.78;;;;;;;23.76;32.72;100106.41;5139177;27;20166;-64
2023/10/13 12:56:28;;;;;;;9.88;4.43;;;;;;;23.88;32.22;100101.81;5139145;27;20072;-64
2023/10/13 12:58:54;;;;;;;5.90;3.72;;;;;;;23.92;32.68;100105.66;5139116;27;20042;-64
2023/10/13 13:01:20;;;;;;;5.15;3.78;;;;;;;24.08;32.30;100102.22;5138934;27;20035;-63
2023/10/13 13:03:50;;;;;;;6.63;4.65;;;;;;;24.11;32.89;100098.22;5139277;27;20042;-63
2023/10/13 13:06:17;;;;;;;5.93;3.70;;;;;;;24.20;32.59;100102.16;5140094;27;20039;-64
2023/10/13 13:08:46;;;;;;;9.02;3.80;;;;;;;24.17;32.68;100100.78;5139709;27;20039;-64
2023/10/13 13:11:12;;;;;;;8.60;4.05;;;;;;;24.13;33.33;100101.50;5139486;27;20038;-64
2023/10/13 13:13:37;;;;;;;8.93;4.63;;;;;;;24.08;32.68;100094.09;5135901;27;20140;-62
2023/10/13 13:16:03;;;;;;;6.00;4.07;;;;;;;24.26;31.63;100103.91;5138830;27;20232;-62
2023/10/13 13:18:29;;;;;;;10.82;4.28;;;;;;;24.30;32.25;100088.03;5139026;27;20042;-62
2023/10/13 13:20:55;;;;;;;8.68;4.50;;;;;;;24.35;32.81;100102.47;5139522;27;20198;-62
2023/10/13 13:23:22;;;;;;;10.05;3.95;;;;;;;24.28;31.61;100103.69;5138308;27;20031;-62
2023/10/13 13:25:47;;;;;;;6.13;3.72;;;;;;;24.27;33.04;100102.06;5139181;27;20206;-62
2023/10/13 13:28:15;;;;;;;5.28;3.78;;;;;;;24.29;31.94;100098.03;5138986;27;20102;-62
2023/10/13 13:30:43;;;;;;;8.90;4.95;;;;;;;24.40;31.17;100101.75;5138821;27;20312;-62
2023/10/13 13:33:12;;;;;;;8.73;5.13;;;;;;;24.43;30.77;100096.66;5138787;27;20039;-62
2023/10/13 13:35:38;;;;;;;9.52;5.15;;;;;;;24.44;31.38;100097.50;5139043;27;20035;-62
2023/10/13 13:38:50;;;;;;;6.72;5.00;;;;;;;24.59;30.79;100088.81;5138956;27;20209;-62
2023/10/13 13:40:53;;;;;;;8.15;5.00;;;;;;;24.62;29.57;100091.84;5121494;27;20043;-62
2023/10/13 13:43:37;;;;;;;8.13;4.95;;;;;;;24.66;29.99;100084.88;5131506;27;20039;-62
2023/10/13 13:46:11;;;;;;;8.35;5.05;;;;;;;24.60;29.06;100088.56;5138455;27;20309;-62
2023/10/13 13:48:38;;;;;;;9.00;5.78;;;;;;;24.53;29.69;100093.31;5138383;27;20106;-62
2023/10/13 13:51:14;;;;;;;8.93;5.82;;;;;;;24.40;30.08;100093.63;5138744;27;20058;-62
2023/10/13 13:53:45;;;;;;;14.40;5.65;;;;;;;24.33;30.25;100088.38;5138614;27;20031;-62
2023/10/13 13:56:15;;;;;;;12.73;4.97;;;;;;;24.40;29.67;100091.75;5138255;27;20464;-62
2023/10/13 13:58:44;;;;;;;13.27;4.70;;;;;;;24.35;30.76;100090.84;5138739;27;20031;-62
2023/10/13 14:01:14;;;;;;;9.45;4.50;;;;;;;24.32;31.08;100094.03;5138729;27;20069;-62
2023/10/13 14:03:45;;;;;;;9.85;4.28;;;;;;;24.24;31.18;100089.78;5138771;27;20094;-62
2023/10/13 14:06:24;;;;;;;10.55;3.75;;;;;;;24.17;31.37;100089.13;5138971;27;20047;-62
2023/10/13 14:08:59;;;;;;;7.50;3.90;;;;;;;24.11;31.27;100084.69;5139438;27;20233;-62
2023/10/13 14:14:13;;;;;;;4.10;3.33;;;;;;;24.12;32.12;100081.75;5138848;27;20031;-63
2023/10/13 14:16:47;;;;;;;7.22;3.47;;;;;;;24.13;32.00;100086.09;5133577;28;20068;-62
2023/10/13 14:19:19;;;;;;;5.28;3.67;;;;;;;24.17;31.80;100078.31;5138566;27;20047;-62
2023/10/13 14:21:44;;;;;;;8.38;3.50;;;;;;;24.13;32.04;100071.75;5138884;28;20083;-63
2023/10/13 14:24:14;;;;;;;12.93;4.20;;;;;;;24.14;31.75;100071.50;5138507;27;20043;-63
2023/10/13 14:26:42;;;;;;;10.02;3.72;;;;;;;24.09;31.64;100068.69;5138394;27;20094;-62
2023/10/13 14:29:08;;;;;;;5.20;3.40;;;;;;;24.09;31.98;100066.00;5135120;28;20031;-63
2023/10/13 14:31:37;;;;;;;21.92;4.47;;;;;;;24.14;32.80;100067.97;5138919;27;20031;-63
2023/10/13 14:34:03;;;;;;;7.35;3.60;;;;;;;24.10;32.29;100070.34;5138401;28;20043;-63
2023/10/13 14:36:28;;;;;;;6.25;3.13;;;;;;;24.08;31.99;100075.16;5138336;27;20064;-63
2023/10/13 14:38:55;;;;;;;5.82;2.72;;;;;;;24.07;31.71;100078.13;5138600;27;20077;-63
2023/10/13 14:41:21;;;;;;;3.90;2.33;;;;;;;24.09;32.35;100079.53;5138684;28;20098;-63
2023/10/13 14:43:49;;;;;;;5.47;3.13;;;;;;;24.09;31.66;100073.28;5138339;27;20221;-62
2023/10/13 14:46:22;;;;;;;3.88;1.92;;;;;;;24.07;31.71;100070.00;5139113;27;20046;-63
2023/10/13 14:48:48;;;;;;;3.85;2.30;;;;;;;24.07;31.10;100068.13;5139047;28;20035;-63
2023/10/13 14:51:16;;;;;;;7.78;2.85;;;;;;;24.11;31.35;100073.88;5124384;27;20034;-63
2023/10/13 14:53:43;;;;;;;5.65;2.50;;;;;;;24.07;31.56;100070.81;5120694;28;20031;-62
2023/10/13 14:56:13;;;;;;;4.20;2.08;;;;;;;24.06;31.88;100071.06;5121420;28;20593;-62
2023/10/13 14:58:42;;;;;;;3.97;2.28;;;;;;;24.03;31.35;100077.78;5122948;27;20047;-62
2023/10/13 15:01:15;;;;;;;4.95;2.38;;;;;;;24.00;31.44;100070.16;5124030;27;20318;-62